createdAt,value
2023-03-27T00:02:41.842Z,3.17
2023-03-27T00:05:10.417Z,1.95
2023-03-27T00:07:41.433Z,2.97
2023-03-27T00:10:10.336Z,2.20
2023-03-27T00:12:39.343Z,8.60
2023-03-27T00:15:08.312Z,4.40
2023-03-27T00:17:37.655Z,5.20
2023-03-27T00:20:08.642Z,5.65
2023-03-27T00:22:36.541Z,3.33
2023-03-27T00:25:05.380Z,3.05
2023-03-27T00:27:33.382Z,3.50
2023-03-27T00:30:01.207Z,2.90
2023-03-27T00:32:29.082Z,2.83
2023-03-27T00:34:57.008Z,2.35
2023-03-27T00:37:24.891Z,1.95
2023-03-27T00:39:52.679Z,3.60
2023-03-27T00:42:23.261Z,2.30
2023-03-27T00:44:52.242Z,3.97
2023-03-27T00:47:33.965Z,4.40
2023-03-27T00:50:06.920Z,3.15
2023-03-27T00:52:37.361Z,6.35
2023-03-27T00:55:10.341Z,5.35
2023-03-27T00:57:38.442Z,3.40
2023-03-27T01:00:13.073Z,2.53
2023-03-27T01:02:44.553Z,3.75
2023-03-27T01:05:13.731Z,2.42
2023-03-27T01:08:00.247Z,3.15
2023-03-27T01:10:42.877Z,7.85
2023-03-27T01:13:54.191Z,15.00
2023-03-27T01:16:49.584Z,11.32
2023-03-27T01:19:29.446Z,33.40
2023-03-27T01:22:33.434Z,6.97
2023-03-27T01:25:04.534Z,8.60
2023-03-27T01:28:17.570Z,6.05
2023-03-27T01:31:21.671Z,3.75
2023-03-27T01:33:49.830Z,4.40
2023-03-27T01:36:39.983Z,3.42
2023-03-27T01:39:28.476Z,6.13
2023-03-27T01:42:23.069Z,6.90
2023-03-27T01:44:58.465Z,4.20
2023-03-27T01:47:32.719Z,3.22
2023-03-27T01:50:33.687Z,5.18
2023-03-27T01:53:57.322Z,5.55
2023-03-27T01:56:37.693Z,2.75
2023-03-27T01:59:18.834Z,4.43
2023-03-27T02:01:56.361Z,5.43
2023-03-27T02:04:29.246Z,4.38
2023-03-27T02:07:05.127Z,5.03
2023-03-27T02:09:39.037Z,5.68
2023-03-27T02:12:12.234Z,5.65
2023-03-27T02:14:46.678Z,4.60
2023-03-27T02:17:18.722Z,4.57
2023-03-27T02:19:53.172Z,6.82
2023-03-27T02:22:37.579Z,4.63
2023-03-27T02:25:36.239Z,5.75
2023-03-27T02:28:38.298Z,4.07
2023-03-27T02:31:32.522Z,3.55
2023-03-27T02:34:15.577Z,3.88
2023-03-27T02:37:05.493Z,3.88
2023-03-27T02:40:14.451Z,4.38
2023-03-27T02:42:58.727Z,4.05
2023-03-27T02:45:57.140Z,3.28
2023-03-27T02:48:49.252Z,3.20
2023-03-27T02:51:31.075Z,5.53
2023-03-27T02:56:44.995Z,2.22
2023-03-27T02:59:25.776Z,5.10
2023-03-27T03:01:55.433Z,2.03
2023-03-27T03:04:33.389Z,2.35
2023-03-27T03:07:06.619Z,2.42
2023-03-27T03:09:40.315Z,2.17
2023-03-27T03:12:10.441Z,2.38
2023-03-27T03:14:46.881Z,2.75
2023-03-27T03:17:16.646Z,3.13
2023-03-27T03:19:46.157Z,2.95
2023-03-27T03:22:14.998Z,5.82
2023-03-27T03:24:43.948Z,2.28
2023-03-27T03:27:15.953Z,2.65
2023-03-27T03:29:50.634Z,2.95
2023-03-27T03:32:26.840Z,3.17
2023-03-27T03:34:57.148Z,2.42
2023-03-27T03:37:28.851Z,2.45
2023-03-27T03:39:58.818Z,2.65
2023-03-27T03:42:26.931Z,3.67
2023-03-27T03:44:54.905Z,1.98
2023-03-27T03:47:24.396Z,2.85
2023-03-27T03:49:52.380Z,3.83
2023-03-27T03:52:21.246Z,6.07
2023-03-27T03:54:49.306Z,2.53
2023-03-27T03:57:17.754Z,5.53
2023-03-27T03:59:55.274Z,7.35
2023-03-27T04:02:45.799Z,3.00
2023-03-27T04:05:17.392Z,5.20
2023-03-27T04:07:45.982Z,2.40
2023-03-27T04:10:27.440Z,12.00
2023-03-27T04:12:56.342Z,4.75
2023-03-27T04:15:28.768Z,6.47
2023-03-27T04:18:16.622Z,3.83
2023-03-27T04:20:50.242Z,4.57
2023-03-27T04:23:20.368Z,2.95
2023-03-27T04:25:49.112Z,5.05
2023-03-27T04:28:22.881Z,5.05
2023-03-27T04:31:06.629Z,4.95
2023-03-27T04:33:53.552Z,8.32
2023-03-27T04:36:42.809Z,5.63
2023-03-27T04:39:13.225Z,6.50
2023-03-27T04:41:41.141Z,7.03
2023-03-27T04:44:09.307Z,6.03
2023-03-27T04:46:41.746Z,5.35
2023-03-27T04:49:12.627Z,5.85
2023-03-27T04:51:51.458Z,9.95
2023-03-27T04:54:23.098Z,6.40
2023-03-27T04:56:53.590Z,6.88
2023-03-27T04:59:22.570Z,7.80
2023-03-27T05:02:13.275Z,7.28
2023-03-27T05:05:02.395Z,7.82
2023-03-27T05:07:37.003Z,10.95
2023-03-27T05:10:07.672Z,16.58
2023-03-27T05:12:36.493Z,6.93
2023-03-27T05:15:06.463Z,5.13
2023-03-27T05:17:42.302Z,2.83
2023-03-27T05:20:15.118Z,2.97
2023-03-27T05:22:44.521Z,1.58
2023-03-27T05:25:39.657Z,3.75
2023-03-27T05:28:12.776Z,1.83
2023-03-27T05:30:42.590Z,4.10
2023-03-27T05:33:17.910Z,3.55
2023-03-27T05:35:48.477Z,2.67
2023-03-27T05:38:17.580Z,2.03
2023-03-27T05:41:10.509Z,3.03
2023-03-27T05:43:45.475Z,1.65
2023-03-27T05:46:21.057Z,1.98
2023-03-27T05:49:02.737Z,2.97
2023-03-27T05:51:31.791Z,1.88
2023-03-27T05:54:00.090Z,1.67
2023-03-27T05:56:48.431Z,1.85
2023-03-27T05:59:17.470Z,4.25
2023-03-27T06:01:49.254Z,1.58
2023-03-27T06:04:24.349Z,2.28
2023-03-27T06:07:02.806Z,2.20
2023-03-27T06:09:32.777Z,2.83
2023-03-27T06:12:33.130Z,10.45
2023-03-27T06:15:11.159Z,3.17
2023-03-27T06:17:47.818Z,1.98
2023-03-27T06:20:16.296Z,2.17
2023-03-27T06:22:53.757Z,2.15
2023-03-27T06:25:34.952Z,5.45
2023-03-27T06:28:07.402Z,2.05
2023-03-27T06:30:42.592Z,4.13
2023-03-27T06:33:47.401Z,3.25
2023-03-27T06:36:29.453Z,2.22
2023-03-27T06:39:00.775Z,3.50
2023-03-27T06:41:31.913Z,3.38
2023-03-27T06:44:22.858Z,3.13
2023-03-27T06:47:14.413Z,1.95
2023-03-27T06:50:11.519Z,2.03
2023-03-27T06:52:39.481Z,1.70
2023-03-27T06:55:32.321Z,2.38
2023-03-27T06:58:02.202Z,2.53
2023-03-27T07:00:37.696Z,1.80
2023-03-27T07:03:20.443Z,3.58
2023-03-27T07:05:54.521Z,4.00
2023-03-27T07:08:25.240Z,3.08
2023-03-27T07:11:11.207Z,13.38
2023-03-27T07:13:46.695Z,4.60
2023-03-27T07:16:22.749Z,4.03
2023-03-27T07:18:51.115Z,2.92
2023-03-27T07:21:19.196Z,3.00
2023-03-27T07:23:47.527Z,3.45
2023-03-27T07:26:21.250Z,3.90
2023-03-27T07:28:55.421Z,3.15
2023-03-27T07:33:55.049Z,2.53
2023-03-27T07:36:31.838Z,2.28
2023-03-27T07:39:06.781Z,2.08
2023-03-27T07:41:36.115Z,1.63
2023-03-27T07:44:24.823Z,2.47
2023-03-27T07:46:58.751Z,3.33
2023-03-27T07:49:39.235Z,4.47
2023-03-27T07:52:14.724Z,1.92
2023-03-27T07:54:53.488Z,2.05
2023-03-27T07:57:24.648Z,3.03
2023-03-27T07:59:53.006Z,4.95
2023-03-27T08:02:32.071Z,2.47
2023-03-27T08:07:40.987Z,2.05
2023-03-27T08:10:10.373Z,3.53
2023-03-27T08:12:52.923Z,2.65
2023-03-27T08:15:21.229Z,3.80
2023-03-27T08:17:54.128Z,2.63
2023-03-27T08:20:25.609Z,2.50
2023-03-27T08:25:35.026Z,2.45
2023-03-27T08:28:07.533Z,2.67
2023-03-27T08:30:36.416Z,2.72
2023-03-27T08:33:05.331Z,3.60
2023-03-27T08:35:33.569Z,2.22
2023-03-27T08:38:03.890Z,3.67
2023-03-27T08:40:59.894Z,2.63
2023-03-27T08:43:45.221Z,5.72
2023-03-27T08:46:20.682Z,2.53
2023-03-27T08:49:11.127Z,2.10
2023-03-27T08:51:54.386Z,3.60
2023-03-27T08:54:26.263Z,3.13
2023-03-27T08:56:56.375Z,2.97
2023-03-27T08:59:28.557Z,3.17
2023-03-27T09:02:09.054Z,3.88
2023-03-27T09:04:57.188Z,6.57
2023-03-27T09:07:32.909Z,8.00
2023-03-27T09:10:45.353Z,3.47
2023-03-27T09:13:58.287Z,5.22
2023-03-27T09:16:35.674Z,6.10
2023-03-27T09:19:25.037Z,5.50
2023-03-27T09:22:18.996Z,6.90
2023-03-27T09:25:24.436Z,7.57
2023-03-27T09:28:21.390Z,4.82
2023-03-27T09:31:23.624Z,3.67
2023-03-27T09:33:52.755Z,4.07
2023-03-27T09:36:22.137Z,5.07
2023-03-27T09:38:58.858Z,4.28
2023-03-27T09:41:34.732Z,5.65
2023-03-27T09:44:42.817Z,4.28
2023-03-27T09:47:17.207Z,3.53
2023-03-27T09:52:41.969Z,3.95
2023-03-27T09:55:50.857Z,4.40
2023-03-27T09:58:28.119Z,4.00
2023-03-27T10:01:26.708Z,4.10
2023-03-27T10:04:00.153Z,2.95
2023-03-27T10:09:27.183Z,4.68
2023-03-27T10:12:10.278Z,3.30
2023-03-27T10:14:45.188Z,4.55
2023-03-27T10:17:26.921Z,6.10
2023-03-27T10:20:11.489Z,3.10
2023-03-27T10:22:43.137Z,4.47
2023-03-27T10:25:19.452Z,4.18
2023-03-27T10:28:11.103Z,3.53
2023-03-27T10:31:26.906Z,4.50
2023-03-27T10:34:38.343Z,3.60
2023-03-27T10:37:41.379Z,3.63
2023-03-27T10:40:37.993Z,4.45
2023-03-27T10:43:37.292Z,5.75
2023-03-27T10:46:11.470Z,3.40
2023-03-27T10:49:04.353Z,3.33
2023-03-27T10:51:46.605Z,3.70
2023-03-27T10:54:33.700Z,3.75
2023-03-27T10:57:12.886Z,4.03
2023-03-27T11:00:00.848Z,5.07
2023-03-27T11:02:45.766Z,3.50
2023-03-27T11:05:28.111Z,2.60
2023-03-27T11:08:19.526Z,4.93
2023-03-27T11:10:49.703Z,4.00
2023-03-27T11:13:33.675Z,3.05
2023-03-27T11:16:48.920Z,2.75
2023-03-27T11:19:43.263Z,5.72
2023-03-27T11:22:42.460Z,2.75
2023-03-27T11:25:34.410Z,3.08
2023-03-27T11:28:18.916Z,3.72
2023-03-27T11:30:53.282Z,3.13
2023-03-27T11:33:32.840Z,1.73
2023-03-27T11:36:06.636Z,1.85
2023-03-27T11:39:06.716Z,2.90
2023-03-27T11:41:36.180Z,2.13
2023-03-27T11:44:04.408Z,4.15
2023-03-27T11:47:32.813Z,2.80
2023-03-27T11:50:08.339Z,4.35
2023-03-27T11:52:56.708Z,2.22
2023-03-27T11:58:39.614Z,3.45
2023-03-27T12:01:21.899Z,5.00
2023-03-27T12:04:11.507Z,4.25
2023-03-27T12:07:36.071Z,3.60
2023-03-27T12:10:17.010Z,3.53
2023-03-27T12:13:41.360Z,5.68
2023-03-27T12:16:33.766Z,3.70
2023-03-27T12:19:39.014Z,6.13
2023-03-27T12:22:28.293Z,9.23
2023-03-27T12:25:27.543Z,7.75
2023-03-27T12:28:35.312Z,5.35
2023-03-27T12:31:42.123Z,6.32
2023-03-27T12:34:50.542Z,4.85
2023-03-27T12:37:31.231Z,7.60
2023-03-27T12:40:01.943Z,5.43
2023-03-27T12:42:55.045Z,4.63
2023-03-27T12:45:28.251Z,3.80
2023-03-27T12:48:12.618Z,3.03
2023-03-27T12:50:44.319Z,5.43
2023-03-27T12:53:31.148Z,10.75
2023-03-27T12:56:17.356Z,5.03
2023-03-27T12:58:52.649Z,2.53
2023-03-27T13:01:52.053Z,3.80
2023-03-27T13:04:51.336Z,4.72
2023-03-27T13:07:43.796Z,1.95
2023-03-27T13:10:30.332Z,4.80
2023-03-27T13:13:35.824Z,8.73
2023-03-27T13:16:42.141Z,5.20
2023-03-27T13:19:23.374Z,9.80
2023-03-27T13:22:39.779Z,4.30
2023-03-27T13:25:31.775Z,5.20
2023-03-27T13:28:38.503Z,5.15
2023-03-27T13:31:44.811Z,9.38
2023-03-27T13:34:35.154Z,4.07
2023-03-27T13:37:09.936Z,2.95
2023-03-27T13:40:20.674Z,2.22
2023-03-27T13:43:21.856Z,3.97
2023-03-27T13:45:59.178Z,2.55
2023-03-27T13:49:04.996Z,2.63
2023-03-27T13:52:11.351Z,1.90
2023-03-27T13:54:46.645Z,3.80
2023-03-27T13:57:46.926Z,2.33
2023-03-27T14:00:54.900Z,6.97
2023-03-27T14:03:49.023Z,3.38
2023-03-27T14:06:28.752Z,8.05
2023-03-27T14:09:27.440Z,3.28
2023-03-27T14:12:43.599Z,1.38
2023-03-27T14:15:53.909Z,1.73
2023-03-27T14:18:58.669Z,1.70
2023-03-27T14:21:38.359Z,1.98
2023-03-27T14:24:40.841Z,10.60
2023-03-27T14:27:21.752Z,4.38
2023-03-27T14:30:07.897Z,4.47
2023-03-27T14:32:38.869Z,5.00
2023-03-27T14:35:29.445Z,4.60
2023-03-27T14:38:25.157Z,3.65
2023-03-27T14:41:02.544Z,2.55
2023-03-27T14:43:53.543Z,10.73
2023-03-27T14:46:24.654Z,5.22
2023-03-27T14:48:58.557Z,5.22
2023-03-27T14:51:37.582Z,8.20
2023-03-27T14:54:19.906Z,11.73
2023-03-27T14:56:52.274Z,4.78
2023-03-27T14:59:44.402Z,7.18
2023-03-27T15:02:19.467Z,4.55
2023-03-27T15:04:48.737Z,5.40
2023-03-27T15:07:28.981Z,3.90
2023-03-27T15:10:31.982Z,2.83
2023-03-27T15:13:36.914Z,5.68
2023-03-27T15:16:14.736Z,2.70
2023-03-27T15:18:45.611Z,2.45
2023-03-27T15:21:21.011Z,6.05
2023-03-27T15:24:20.460Z,1.55
2023-03-27T15:26:51.252Z,0.50
2023-03-27T15:29:43.019Z,1.05
2023-03-27T15:32:15.225Z,2.20
2023-03-27T15:34:47.997Z,7.13
2023-03-27T15:37:23.628Z,2.83
2023-03-27T15:40:16.213Z,4.45
2023-03-27T15:42:54.644Z,7.55
2023-03-27T15:45:35.127Z,7.07
2023-03-27T15:48:07.071Z,9.40
2023-03-27T15:50:35.549Z,7.10
2023-03-27T15:53:04.021Z,5.43
2023-03-27T15:55:37.880Z,4.43
2023-03-27T15:58:21.496Z,5.28
2023-03-27T16:00:52.939Z,8.98
2023-03-27T16:03:26.553Z,5.55
2023-03-27T16:05:57.753Z,5.40
2023-03-27T16:08:32.136Z,5.68
2023-03-27T16:11:01.426Z,4.10
2023-03-27T16:13:37.533Z,5.72
2023-03-27T16:16:23.341Z,5.53
2023-03-27T16:18:52.226Z,8.13
2023-03-27T16:21:26.979Z,4.72
2023-03-27T16:23:55.996Z,4.80
2023-03-27T16:26:28.020Z,8.02
2023-03-27T16:29:00.203Z,16.58
2023-03-27T16:31:29.072Z,16.60
2023-03-27T16:33:58.637Z,16.33
2023-03-27T16:36:33.360Z,11.35
2023-03-27T16:39:02.068Z,10.38
2023-03-27T16:41:30.522Z,13.02
2023-03-27T16:43:59.011Z,11.60
2023-03-27T16:46:29.426Z,8.05
2023-03-27T16:48:58.355Z,4.43
2023-03-27T16:51:29.223Z,3.63
2023-03-27T16:53:57.752Z,9.20
2023-03-27T16:56:26.582Z,6.88
2023-03-27T16:58:55.130Z,6.03
2023-03-27T17:01:26.385Z,6.45
2023-03-27T17:03:54.852Z,6.13
2023-03-27T17:06:23.379Z,6.47
2023-03-27T17:08:55.861Z,5.45
2023-03-27T17:11:24.554Z,3.83
2023-03-27T17:13:53.097Z,3.70
2023-03-27T17:16:21.986Z,4.60
2023-03-27T17:18:52.265Z,6.15
2023-03-27T17:21:20.622Z,4.63
2023-03-27T17:23:49.819Z,4.65
2023-03-27T17:26:30.022Z,9.00
2023-03-27T17:28:58.584Z,18.67
2023-03-27T17:31:30.241Z,5.38
2023-03-27T17:34:00.556Z,5.75
2023-03-27T17:36:41.207Z,4.93
2023-03-27T17:39:12.051Z,5.50
2023-03-27T17:41:40.465Z,8.15
2023-03-27T17:44:15.024Z,12.35
2023-03-27T17:46:43.755Z,5.90
2023-03-27T17:49:12.388Z,6.18
2023-03-27T17:51:41.367Z,17.75
2023-03-27T17:56:38.124Z,18.23
2023-03-27T17:59:06.469Z,14.15
2023-03-27T18:01:34.916Z,13.32
2023-03-27T18:04:03.957Z,11.93
2023-03-27T18:06:32.536Z,17.88
2023-03-27T18:09:01.182Z,8.20
2023-03-27T18:11:29.926Z,5.60
2023-03-27T18:13:58.330Z,7.10
2023-03-27T18:16:27.309Z,8.23
2023-03-27T18:18:58.522Z,8.82
2023-03-27T18:21:27.631Z,4.47
2023-03-27T18:23:59.912Z,5.68
2023-03-27T18:26:28.529Z,15.30
2023-03-27T18:28:57.989Z,15.82
2023-03-27T18:31:26.914Z,22.67
2023-03-27T18:33:55.589Z,12.77
2023-03-27T18:36:24.203Z,11.10
2023-03-27T18:38:52.586Z,15.15
2023-03-27T18:41:21.172Z,24.75
2023-03-27T18:43:49.729Z,25.50
2023-03-27T18:46:20.755Z,20.98
2023-03-27T18:48:50.280Z,18.40
2023-03-27T18:51:19.229Z,8.00
2023-03-27T18:53:49.713Z,1.27
2023-03-27T18:56:19.040Z,1.52
2023-03-27T18:58:47.595Z,1.20
2023-03-27T19:01:16.468Z,1.15
2023-03-27T19:03:45.071Z,1.50
2023-03-27T19:06:13.858Z,2.08
2023-03-27T19:08:45.728Z,2.78
2023-03-27T19:11:14.188Z,2.97
2023-03-27T19:14:12.515Z,1.38
2023-03-27T19:19:46.604Z,2.72
2023-03-27T19:22:32.678Z,1.85
2023-03-27T19:25:22.628Z,1.85
2023-03-27T19:27:51.269Z,1.83
2023-03-27T19:30:19.859Z,3.58
2023-03-27T19:32:48.728Z,3.85
2023-03-27T19:35:17.330Z,2.42
2023-03-27T19:37:46.263Z,2.58
2023-03-27T19:40:15.714Z,2.03
2023-03-27T19:42:44.343Z,4.28
2023-03-27T19:45:12.925Z,3.22
2023-03-27T19:47:41.719Z,3.97
2023-03-27T19:50:10.343Z,2.88
2023-03-27T19:53:08.649Z,2.90
2023-03-27T19:55:38.184Z,5.95
2023-03-27T19:58:06.709Z,1.92
2023-03-27T20:00:40.086Z,3.90
2023-03-27T20:03:10.774Z,1.88
2023-03-27T20:05:40.722Z,2.97
2023-03-27T20:08:08.729Z,4.72
2023-03-27T20:10:36.701Z,2.40
2023-03-27T20:13:04.816Z,4.30
2023-03-27T20:15:34.513Z,2.90
2023-03-27T20:18:03.917Z,3.20
2023-03-27T20:20:33.555Z,4.15
2023-03-27T20:23:03.318Z,3.33
2023-03-27T20:25:33.670Z,4.13
2023-03-27T20:28:03.334Z,2.50
2023-03-27T20:30:34.614Z,2.95
2023-03-27T20:33:03.491Z,2.72
2023-03-27T20:35:33.492Z,3.03
2023-03-27T20:38:06.052Z,2.65
2023-03-27T20:40:52.722Z,2.35
2023-03-27T20:43:27.510Z,3.17
2023-03-27T20:45:59.140Z,2.05
2023-03-27T20:48:41.078Z,2.20
2023-03-27T20:51:14.978Z,2.25
2023-03-27T20:53:45.024Z,6.10
2023-03-27T20:56:14.473Z,2.50
2023-03-27T20:58:42.834Z,2.95
2023-03-27T21:01:11.582Z,2.13
2023-03-27T21:03:42.915Z,4.57
2023-03-27T21:06:15.000Z,1.40
2023-03-27T21:08:43.377Z,1.83
2023-03-27T21:11:11.893Z,3.35
2023-03-27T21:13:40.159Z,1.55
2023-03-27T21:16:09.326Z,1.50
2023-03-27T21:18:37.282Z,1.83
2023-03-27T21:21:05.588Z,1.63
2023-03-27T21:23:34.840Z,1.25
2023-03-27T21:30:59.798Z,3.03
2023-03-27T21:33:27.697Z,5.57
2023-03-27T21:35:55.664Z,3.38
2023-03-27T21:38:23.754Z,2.42
2023-03-27T21:40:51.625Z,4.28
2023-03-27T21:43:21.487Z,1.80
2023-03-27T21:45:50.507Z,1.70
2023-03-27T21:48:18.820Z,1.92
2023-03-27T21:50:47.690Z,2.67
2023-03-27T21:53:17.159Z,2.33
2023-03-27T21:55:46.951Z,4.38
2023-03-27T21:58:15.001Z,2.60
2023-03-27T22:00:45.843Z,3.50
2023-03-27T22:03:13.884Z,2.58
2023-03-27T22:05:42.066Z,5.13
2023-03-27T22:08:10.327Z,1.83
2023-03-27T22:10:38.475Z,2.30
2023-03-27T22:13:06.844Z,3.40
2023-03-27T22:15:34.997Z,2.60
2023-03-27T22:18:03.027Z,1.65
2023-03-27T22:20:30.999Z,2.35
2023-03-27T22:22:59.161Z,2.53
2023-03-27T22:25:27.110Z,1.80
2023-03-27T22:27:55.042Z,2.50
2023-03-27T22:30:23.168Z,2.20
2023-03-27T22:32:51.127Z,2.17
2023-03-27T22:35:19.454Z,1.88
2023-03-27T22:37:47.470Z,1.88
2023-03-27T22:40:15.687Z,1.95
2023-03-27T22:42:43.834Z,2.40
2023-03-27T22:45:11.966Z,2.38
2023-03-27T22:50:09.134Z,1.92
2023-03-27T22:52:37.193Z,1.52
2023-03-27T22:55:05.501Z,1.80
2023-03-27T22:57:36.248Z,1.88
2023-03-27T23:00:07.061Z,1.80
2023-03-27T23:02:35.821Z,2.17
2023-03-27T23:05:04.545Z,2.90
2023-03-27T23:07:32.839Z,1.73
2023-03-27T23:10:00.989Z,2.80
2023-03-27T23:12:28.810Z,4.07
2023-03-27T23:14:56.843Z,2.75
2023-03-27T23:17:24.851Z,3.83
2023-03-27T23:19:52.770Z,3.60
2023-03-27T23:22:20.795Z,4.22
2023-03-27T23:24:48.674Z,2.53
2023-03-27T23:27:16.644Z,4.18
2023-03-27T23:29:44.621Z,3.67
2023-03-27T23:32:12.646Z,3.25
2023-03-27T23:34:41.083Z,4.35
2023-03-27T23:37:08.954Z,3.38
2023-03-27T23:39:36.873Z,5.45
2023-03-27T23:42:04.886Z,3.60
2023-03-27T23:44:32.881Z,6.85
2023-03-27T23:47:00.854Z,2.63
2023-03-27T23:49:28.715Z,7.20
2023-03-27T23:51:56.723Z,3.10
2023-03-27T23:54:24.697Z,3.28
2023-03-27T23:56:52.736Z,2.60
2023-03-27T23:59:23.502Z,1.92
